Kalaheo, HI

6:42 PM HST on August 29, 2014 (GMT -1000)
Kalaeloa (John Rodgers Field) | Change Station
CLOSE
Current Station
Airport
Location: Kalaeloa,
Elevation: 49 ft
Nearby Weather Stations
Active Advisory: High Surf Advisory

Elev 49 ft 21.31 °N, 158.07 °W | Updated 49 minutes ago

Overcast
Overcast
79 °F
Feels Like 79 °F
N
9
Wind Variable Wind from WNW

Today
High -- | Low -- °F
--% Chance of Precip.
Yesterday
High -- | Low -- °F
Precip. -- in
6:20 AM 6:57 PM
Waxing Crescent, 19% visible
Pressure 29.93 in
Visibility 10.0 miles
Clouds Mostly Cloudy 4500 ft
Overcast 4900 ft
Dew Point 72 °F
Humidity 79%
Rainfall 0.44 in
Snow Depth Not available.
UV 0 out of 12
Pollen Not available.
Air Quality Not available.
Flu Activity Not available.
METAR PHJR 300353Z 30008KT 10SM BKN045 OVC049 26/22 A2991 RMK AO2 RAE12 SLP133 P0005 T02610222

More Conditions Fewer Conditions

Pressure 29.93 in
Visibility 10.0 miles
Clouds Mostly Cloudy 4500 ft
Overcast 4900 ft
Dew Point 72 °F
Humidity 79%
Rainfall 0.44 in
Snow Depth Not available.
UV 0 out of 12
Pollen Not available.
Air Quality Not available.
Flu Activity Not available.
METAR PHJR 300353Z 30008KT 10SM BKN045 OVC049 26/22 A2991 RMK AO2 RAE12 SLP133 P0005 T02610222

More Conditions Fewer Conditions

10-Day Weather Forecast

Almanac

Astronomy

Aug. 29, 2014 Rise Set
Actual Time 6:20 AM HST 6:57 PM HST
Civil Twilight 5:57 AM HST 7:19 PM HST
Nautical Twilight 5:31 AM HST 7:46 PM HST
Astronomical Twilight 5:04 AM HST 8:13 PM HST
Moon 9:47 AM HST (8/29) 9:37 PM HST (8/29)
Length of Visible Light 13h 22m
Length of Day
12h 36m
Tomorrow will be 1m 11s shorter.
Waxing Crescent, 19% of the Moon is Illuminated
Aug 30
Waxing Crescent
Sep 2
First Quarter
Sep 8
Full
Sep 15
Last Quarter
Sep 24
New

Yesterday's Extremes

State Highs State Lows

Community

WunderPhotos

Upload Photos

1,748,454 photos uploaded!

Nearby

Snow Depth

Station Depth Elevation
No new snow has been reported.

Earthquake Activity

City Distance Mag. Time & Date
No recent earthquake activity has been reported nearby.
Minimum magnitude displayed is 2.5.

Coastal Water Temperatures

Place Temperature
No Stations Reporting

Nearby Weather Stations